sensor_id;sensor_type;location;lat;lon;timestamp;pressure;altitude;pressure_sealevel;temperature;humidity
66176;BME280;52977;44.816;20.538;2023-04-12T00:01:56;99252.22;;;11.13;77.31
66176;BME280;52977;44.816;20.538;2023-04-12T00:04:22;99237.31;;;11.10;77.90
66176;BME280;52977;44.816;20.538;2023-04-12T00:06:54;99169.34;;;10.63;77.19
66176;BME280;52977;44.816;20.538;2023-04-12T00:09:20;99140.56;;;10.65;77.06
66176;BME280;52977;44.816;20.538;2023-04-12T00:11:47;99216.50;;;11.18;77.10
66176;BME280;52977;44.816;20.538;2023-04-12T00:14:13;99134.91;;;10.70;77.47
66176;BME280;52977;44.816;20.538;2023-04-12T00:16:39;99176.00;;;10.86;78.12
66176;BME280;52977;44.816;20.538;2023-04-12T00:19:06;99186.78;;;10.83;78.40
66176;BME280;52977;44.816;20.538;2023-04-12T00:21:33;99227.28;;;11.14;78.31
66176;BME280;52977;44.816;20.538;2023-04-12T00:23:59;99163.13;;;10.74;78.27
66176;BME280;52977;44.816;20.538;2023-04-12T00:26:26;99218.97;;;11.10;78.32
66176;BME280;52977;44.816;20.538;2023-04-12T00:28:53;99220.66;;;11.03;79.43
66176;BME280;52977;44.816;20.538;2023-04-12T00:31:18;99203.41;;;11.11;79.39
66176;BME280;52977;44.816;20.538;2023-04-12T00:33:44;99185.66;;;10.84;80.07
66176;BME280;52977;44.816;20.538;2023-04-12T00:36:11;99123.38;;;10.31;80.76
66176;BME280;52977;44.816;20.538;2023-04-12T00:38:37;99210.81;;;10.89;81.49
66176;BME280;52977;44.816;20.538;2023-04-12T00:41:03;99139.25;;;10.50;81.12
66176;BME280;52977;44.816;20.538;2023-04-12T00:43:29;99173.81;;;10.80;80.34
66176;BME280;52977;44.816;20.538;2023-04-12T00:45:56;99136.19;;;10.52;80.93
66176;BME280;52977;44.816;20.538;2023-04-12T00:48:25;99151.34;;;10.62;80.48
66176;BME280;52977;44.816;20.538;2023-04-12T00:50:52;99169.72;;;10.73;80.76
66176;BME280;52977;44.816;20.538;2023-04-12T00:53:22;99175.28;;;10.65;80.93
66176;BME280;52977;44.816;20.538;2023-04-12T00:55:49;99204.44;;;10.85;81.59
66176;BME280;52977;44.816;20.538;2023-04-12T00:58:15;99170.41;;;10.70;82.06
66176;BME280;52977;44.816;20.538;2023-04-12T01:00:42;99182.97;;;10.63;84.37
66176;BME280;52977;44.816;20.538;2023-04-12T01:03:18;99169.88;;;10.56;85.48
66176;BME280;52977;44.816;20.538;2023-04-12T01:06:03;99195.94;;;10.66;86.16
66176;BME280;52977;44.816;20.538;2023-04-12T01:08:48;99196.34;;;10.76;86.35
66176;BME280;52977;44.816;20.538;2023-04-12T01:11:36;99192.06;;;10.88;86.47
66176;BME280;52977;44.816;20.538;2023-04-12T01:16:56;99197.50;;;10.88;87.06
66176;BME280;52977;44.816;20.538;2023-04-12T01:25:18;99187.72;;;10.87;86.81
66176;BME280;52977;44.816;20.538;2023-04-12T01:28:01;99197.06;;;10.86;87.00
66176;BME280;52977;44.816;20.538;2023-04-12T01:30:28;99197.09;;;10.65;87.18
66176;BME280;52977;44.816;20.538;2023-04-12T01:32:55;99148.31;;;10.42;87.16
66176;BME280;52977;44.816;20.538;2023-04-12T01:35:26;99175.38;;;10.68;86.56
66176;BME280;52977;44.816;20.538;2023-04-12T01:37:53;99173.31;;;10.65;86.90
66176;BME280;52977;44.816;20.538;2023-04-12T01:40:20;99158.94;;;10.56;87.01
66176;BME280;52977;44.816;20.538;2023-04-12T01:42:46;99163.63;;;10.55;86.58
66176;BME280;52977;44.816;20.538;2023-04-12T01:45:12;99135.53;;;10.13;88.02
66176;BME280;52977;44.816;20.538;2023-04-12T01:47:38;99109.88;;;10.14;86.17
66176;BME280;52977;44.816;20.538;2023-04-12T01:50:17;99198.69;;;10.66;85.78
66176;BME280;52977;44.816;20.538;2023-04-12T01:52:52;99191.69;;;10.56;85.07
66176;BME280;52977;44.816;20.538;2023-04-12T01:55:22;99178.47;;;10.46;83.82
66176;BME280;52977;44.816;20.538;2023-04-12T01:57:50;99177.47;;;10.50;82.62
66176;BME280;52977;44.816;20.538;2023-04-12T02:00:18;99189.66;;;10.53;81.31
66176;BME280;52977;44.816;20.538;2023-04-12T02:02:45;99143.97;;;10.20;80.18
66176;BME280;52977;44.816;20.538;2023-04-12T02:05:12;99110.06;;;9.87;79.41
66176;BME280;52977;44.816;20.538;2023-04-12T02:07:39;99035.94;;;9.22;78.11
66176;BME280;52977;44.816;20.538;2023-04-12T02:10:12;99174.31;;;10.18;76.92
66176;BME280;52977;44.816;20.538;2023-04-12T02:12:38;99135.19;;;9.93;76.97
66176;BME280;52977;44.816;20.538;2023-04-12T02:15:05;99134.94;;;9.86;76.86
66176;BME280;52977;44.816;20.538;2023-04-12T02:17:33;99179.97;;;10.13;76.42
66176;BME280;52977;44.816;20.538;2023-04-12T02:20:03;99190.22;;;10.16;76.42
66176;BME280;52977;44.816;20.538;2023-04-12T02:22:49;99201.81;;;10.13;76.41
66176;BME280;52977;44.816;20.538;2023-04-12T02:25:16;99177.88;;;9.89;77.04
66176;BME280;52977;44.816;20.538;2023-04-12T02:27:45;99157.47;;;9.74;76.97
66176;BME280;52977;44.816;20.538;2023-04-12T02:30:12;99073.31;;;9.43;76.75
66176;BME280;52977;44.816;20.538;2023-04-12T02:32:40;99131.66;;;9.71;76.55
66176;BME280;52977;44.816;20.538;2023-04-12T02:35:16;99195.00;;;9.98;78.28
66176;BME280;52977;44.816;20.538;2023-04-12T02:37:49;99210.63;;;10.10;75.86
66176;BME280;52977;44.816;20.538;2023-04-12T02:40:16;99163.03;;;9.78;75.29
66176;BME280;52977;44.816;20.538;2023-04-12T02:42:42;99178.38;;;9.82;73.83
66176;BME280;52977;44.816;20.538;2023-04-12T02:45:11;99183.91;;;9.73;71.10
66176;BME280;52977;44.816;20.538;2023-04-12T02:47:38;99176.66;;;9.48;71.67
66176;BME280;52977;44.816;20.538;2023-04-12T02:50:07;99199.25;;;9.48;71.14
66176;BME280;52977;44.816;20.538;2023-04-12T02:52:41;99203.53;;;9.58;71.20
66176;BME280;52977;44.816;20.538;2023-04-12T02:55:09;99203.91;;;9.48;69.73
66176;BME280;52977;44.816;20.538;2023-04-12T02:57:35;99164.13;;;9.17;69.64
66176;BME280;52977;44.816;20.538;2023-04-12T03:00:03;99189.72;;;9.24;68.93
66176;BME280;52977;44.816;20.538;2023-04-12T03:02:43;99171.19;;;9.09;69.48
66176;BME280;52977;44.816;20.538;2023-04-12T03:05:16;99142.91;;;8.84;69.53
66176;BME280;52977;44.816;20.538;2023-04-12T03:07:44;99222.41;;;9.24;69.42
66176;BME280;52977;44.816;20.538;2023-04-12T03:10:16;99155.41;;;8.85;70.30
66176;BME280;52977;44.816;20.538;2023-04-12T03:12:55;99225.63;;;9.27;70.51
66176;BME280;52977;44.816;20.538;2023-04-12T03:15:25;99221.91;;;9.31;70.54
66176;BME280;52977;44.816;20.538;2023-04-12T03:17:53;99215.47;;;9.36;71.32
66176;BME280;52977;44.816;20.538;2023-04-12T03:20:22;99205.84;;;9.38;71.99
66176;BME280;52977;44.816;20.538;2023-04-12T03:23:05;99170.22;;;9.14;72.08
66176;BME280;52977;44.816;20.538;2023-04-12T03:25:33;99082.66;;;8.55;71.90
66176;BME280;52977;44.816;20.538;2023-04-12T03:28:18;99207.47;;;9.39;69.12
66176;BME280;52977;44.816;20.538;2023-04-12T03:30:49;99215.50;;;9.27;69.45
66176;BME280;52977;44.816;20.538;2023-04-12T03:33:18;99184.84;;;9.00;69.35
66176;BME280;52977;44.816;20.538;2023-04-12T03:35:46;99142.09;;;8.92;68.97
66176;BME280;52977;44.816;20.538;2023-04-12T03:38:14;99180.63;;;9.12;69.66
66176;BME280;52977;44.816;20.538;2023-04-12T03:40:41;99209.41;;;9.30;68.92
66176;BME280;52977;44.816;20.538;2023-04-12T03:43:08;99202.84;;;9.31;69.32
66176;BME280;52977;44.816;20.538;2023-04-12T03:45:34;99200.03;;;9.49;68.25
66176;BME280;52977;44.816;20.538;2023-04-12T03:48:02;99198.88;;;9.58;67.77
66176;BME280;52977;44.816;20.538;2023-04-12T03:50:35;99102.91;;;8.76;67.69
66176;BME280;52977;44.816;20.538;2023-04-12T03:53:10;99199.41;;;9.52;67.10
66176;BME280;52977;44.816;20.538;2023-04-12T03:55:37;99116.00;;;8.91;67.35
66176;BME280;52977;44.816;20.538;2023-04-12T03:58:03;99199.75;;;9.41;66.32
66176;BME280;52977;44.816;20.538;2023-04-12T04:00:35;99198.06;;;9.28;66.98
66176;BME280;52977;44.816;20.538;2023-04-12T04:03:07;99210.44;;;9.17;67.66
66176;BME280;52977;44.816;20.538;2023-04-12T04:05:49;99187.78;;;8.78;68.40
66176;BME280;52977;44.816;20.538;2023-04-12T04:08:18;99223.41;;;9.02;68.02
66176;BME280;52977;44.816;20.538;2023-04-12T04:10:51;99184.25;;;8.68;68.48
66176;BME280;52977;44.816;20.538;2023-04-12T04:13:20;99179.28;;;8.62;68.77
66176;BME280;52977;44.816;20.538;2023-04-12T04:15:50;99231.63;;;8.85;69.56
66176;BME280;52977;44.816;20.538;2023-04-12T04:18:17;99222.50;;;8.63;70.21
66176;BME280;52977;44.816;20.538;2023-04-12T04:20:43;99223.59;;;8.97;69.32
66176;BME280;52977;44.816;20.538;2023-04-12T04:23:14;99233.50;;;9.02;68.78
66176;BME280;52977;44.816;20.538;2023-04-12T04:25:42;99208.69;;;9.03;68.77
66176;BME280;52977;44.816;20.538;2023-04-12T04:28:11;99202.44;;;8.94;68.27
66176;BME280;52977;44.816;20.538;2023-04-12T04:30:41;99213.63;;;9.01;67.87
66176;BME280;52977;44.816;20.538;2023-04-12T04:33:14;99178.13;;;8.80;68.31
66176;BME280;52977;44.816;20.538;2023-04-12T04:35:45;99167.59;;;8.70;68.70
66176;BME280;52977;44.816;20.538;2023-04-12T04:38:24;99184.72;;;8.79;68.47
66176;BME280;52977;44.816;20.538;2023-04-12T04:40:53;99193.13;;;9.13;67.73
66176;BME280;52977;44.816;20.538;2023-04-12T04:43:25;99200.16;;;9.14;67.90
66176;BME280;52977;44.816;20.538;2023-04-12T04:45:59;99176.69;;;8.83;67.75
66176;BME280;52977;44.816;20.538;2023-04-12T04:48:27;99237.13;;;9.23;67.98
66176;BME280;52977;44.816;20.538;2023-04-12T04:50:54;99176.84;;;8.95;68.22
66176;BME280;52977;44.816;20.538;2023-04-12T04:53:21;99224.66;;;9.22;67.16
66176;BME280;52977;44.816;20.538;2023-04-12T04:55:48;99217.13;;;9.19;67.21
66176;BME280;52977;44.816;20.538;2023-04-12T04:58:15;99224.94;;;9.38;66.36
66176;BME280;52977;44.816;20.538;2023-04-12T05:00:43;99241.34;;;9.12;67.40
66176;BME280;52977;44.816;20.538;2023-04-12T05:03:10;99165.34;;;8.81;67.38
66176;BME280;52977;44.816;20.538;2023-04-12T05:05:37;99206.88;;;9.16;67.40
66176;BME280;52977;44.816;20.538;2023-04-12T05:08:08;99175.41;;;8.89;67.13
66176;BME280;52977;44.816;20.538;2023-04-12T05:10:34;99235.38;;;9.28;66.93
66176;BME280;52977;44.816;20.538;2023-04-12T05:13:01;99237.94;;;9.24;67.88
66176;BME280;52977;44.816;20.538;2023-04-12T05:15:29;99170.59;;;8.86;67.03
66176;BME280;52977;44.816;20.538;2023-04-12T05:17:56;99191.91;;;8.84;68.56
66176;BME280;52977;44.816;20.538;2023-04-12T05:20:23;99253.91;;;9.43;66.95
66176;BME280;52977;44.816;20.538;2023-04-12T05:22:49;99226.94;;;9.12;67.61
66176;BME280;52977;44.816;20.538;2023-04-12T05:25:15;99220.00;;;9.23;66.38
66176;BME280;52977;44.816;20.538;2023-04-12T05:27:51;99236.00;;;9.72;65.40
66176;BME280;52977;44.816;20.538;2023-04-12T05:30:19;99145.56;;;9.10;65.68
66176;BME280;52977;44.816;20.538;2023-04-12T05:32:45;99171.31;;;9.21;66.49
66176;BME280;52977;44.816;20.538;2023-04-12T05:35:13;99162.47;;;9.24;65.21
66176;BME280;52977;44.816;20.538;2023-04-12T05:37:44;99229.78;;;9.71;65.13
66176;BME280;52977;44.816;20.538;2023-04-12T05:40:12;99183.06;;;9.43;65.39
66176;BME280;52977;44.816;20.538;2023-04-12T05:42:39;99234.34;;;9.88;64.63
66176;BME280;52977;44.816;20.538;2023-04-12T05:45:05;99231.88;;;9.96;63.97
66176;BME280;52977;44.816;20.538;2023-04-12T05:47:35;99187.00;;;9.63;63.88
66176;BME280;52977;44.816;20.538;2023-04-12T05:50:02;99216.25;;;9.84;63.93
66176;BME280;52977;44.816;20.538;2023-04-12T05:52:29;99233.00;;;9.95;63.35
66176;BME280;52977;44.816;20.538;2023-04-12T05:54:55;99149.19;;;9.23;64.01
66176;BME280;52977;44.816;20.538;2023-04-12T05:57:21;99236.84;;;9.64;64.96
66176;BME280;52977;44.816;20.538;2023-04-12T05:59:48;99191.88;;;9.49;65.14
66176;BME280;52977;44.816;20.538;2023-04-12T06:02:15;99171.06;;;9.44;64.60
66176;BME280;52977;44.816;20.538;2023-04-12T06:04:41;99237.00;;;9.67;64.54
66176;BME280;52977;44.816;20.538;2023-04-12T06:07:11;99153.53;;;9.15;64.70
66176;BME280;52977;44.816;20.538;2023-04-12T06:09:37;99233.22;;;9.51;66.20
66176;BME280;52977;44.816;20.538;2023-04-12T06:12:04;99122.47;;;8.60;66.09
66176;BME280;52977;44.816;20.538;2023-04-12T06:14:33;99183.06;;;9.04;66.13
66176;BME280;52977;44.816;20.538;2023-04-12T06:17:00;99214.06;;;9.30;66.70
66176;BME280;52977;44.816;20.538;2023-04-12T06:19:26;99194.06;;;9.26;66.06
66176;BME280;52977;44.816;20.538;2023-04-12T06:21:51;99220.16;;;9.27;66.77
66176;BME280;52977;44.816;20.538;2023-04-12T06:24:19;99218.19;;;9.36;66.60
66176;BME280;52977;44.816;20.538;2023-04-12T06:26:46;99171.00;;;9.23;65.98
66176;BME280;52977;44.816;20.538;2023-04-12T06:29:14;99193.66;;;9.45;66.05
66176;BME280;52977;44.816;20.538;2023-04-12T06:31:40;99092.03;;;8.76;66.40
66176;BME280;52977;44.816;20.538;2023-04-12T06:34:07;99207.91;;;9.50;67.47
66176;BME280;52977;44.816;20.538;2023-04-12T06:36:36;99198.25;;;9.62;66.53
66176;BME280;52977;44.816;20.538;2023-04-12T06:39:05;99196.41;;;9.74;66.55
66176;BME280;52977;44.816;20.538;2023-04-12T06:41:31;99203.06;;;9.86;65.06
66176;BME280;52977;44.816;20.538;2023-04-12T06:43:59;99215.31;;;9.80;65.63
66176;BME280;52977;44.816;20.538;2023-04-12T06:46:26;99202.69;;;9.66;66.14
66176;BME280;52977;44.816;20.538;2023-04-12T06:48:53;99193.84;;;9.69;65.91
66176;BME280;52977;44.816;20.538;2023-04-12T06:51:19;99197.06;;;9.71;65.72
66176;BME280;52977;44.816;20.538;2023-04-12T06:53:44;99170.06;;;9.57;65.61
66176;BME280;52977;44.816;20.538;2023-04-12T06:56:10;99208.72;;;9.81;65.35
66176;BME280;52977;44.816;20.538;2023-04-12T06:58:36;99194.56;;;9.57;65.46
66176;BME280;52977;44.816;20.538;2023-04-12T07:01:08;99218.38;;;9.69;66.86
66176;BME280;52977;44.816;20.538;2023-04-12T07:03:41;99177.22;;;9.62;65.97
66176;BME280;52977;44.816;20.538;2023-04-12T07:06:07;99164.22;;;9.68;64.91
66176;BME280;52977;44.816;20.538;2023-04-12T07:08:34;99206.56;;;9.95;66.27
66176;BME280;52977;44.816;20.538;2023-04-12T07:11:01;99207.84;;;10.19;65.37
66176;BME280;52977;44.816;20.538;2023-04-12T07:13:27;99197.88;;;10.23;64.94
66176;BME280;52977;44.816;20.538;2023-04-12T07:15:53;99213.31;;;10.19;65.32
66176;BME280;52977;44.816;20.538;2023-04-12T07:18:20;99179.56;;;9.72;65.39
66176;BME280;52977;44.816;20.538;2023-04-12T07:20:47;99152.78;;;9.74;65.18
66176;BME280;52977;44.816;20.538;2023-04-12T07:23:15;99190.84;;;9.92;66.18
66176;BME280;52977;44.816;20.538;2023-04-12T07:25:41;99207.44;;;10.08;65.41
66176;BME280;52977;44.816;20.538;2023-04-12T07:28:07;99197.53;;;10.24;64.81
66176;BME280;52977;44.816;20.538;2023-04-12T07:30:33;99215.63;;;10.29;64.61
66176;BME280;52977;44.816;20.538;2023-04-12T07:32:59;99215.25;;;10.39;63.95
66176;BME280;52977;44.816;20.538;2023-04-12T07:35:28;99184.34;;;10.05;63.66
66176;BME280;52977;44.816;20.538;2023-04-12T07:37:54;99202.66;;;10.05;63.06
66176;BME280;52977;44.816;20.538;2023-04-12T07:40:20;99237.53;;;10.20;62.89
66176;BME280;52977;44.816;20.538;2023-04-12T07:42:46;99185.97;;;9.77;63.90
66176;BME280;52977;44.816;20.538;2023-04-12T07:45:12;99175.53;;;9.79;63.13
66176;BME280;52977;44.816;20.538;2023-04-12T07:47:39;99199.78;;;10.01;63.19
66176;BME280;52977;44.816;20.538;2023-04-12T07:50:05;99159.47;;;9.86;62.71
66176;BME280;52977;44.816;20.538;2023-04-12T07:52:32;99223.38;;;10.27;62.93
66176;BME280;52977;44.816;20.538;2023-04-12T07:54:58;99182.75;;;10.04;62.65
66176;BME280;52977;44.816;20.538;2023-04-12T07:57:24;99159.63;;;9.89;63.06
66176;BME280;52977;44.816;20.538;2023-04-12T07:59:51;99197.16;;;10.35;62.44
66176;BME280;52977;44.816;20.538;2023-04-12T08:02:17;99189.59;;;10.40;62.10
66176;BME280;52977;44.816;20.538;2023-04-12T08:04:52;99185.19;;;10.27;61.44
66176;BME280;52977;44.816;20.538;2023-04-12T08:07:20;99216.41;;;10.38;61.79
66176;BME280;52977;44.816;20.538;2023-04-12T08:09:49;99221.53;;;10.40;61.56
66176;BME280;52977;44.816;20.538;2023-04-12T08:12:16;99209.03;;;10.39;61.96
66176;BME280;52977;44.816;20.538;2023-04-12T08:14:42;99144.53;;;10.13;60.59
66176;BME280;52977;44.816;20.538;2023-04-12T08:17:09;99142.19;;;10.03;60.44
66176;BME280;52977;44.816;20.538;2023-04-12T08:19:36;99194.38;;;10.43;60.77
66176;BME280;52977;44.816;20.538;2023-04-12T08:22:02;99129.38;;;10.03;61.72
66176;BME280;52977;44.816;20.538;2023-04-12T08:24:29;99207.81;;;10.49;61.33
66176;BME280;52977;44.816;20.538;2023-04-12T08:26:55;99130.34;;;10.20;59.97
66176;BME280;52977;44.816;20.538;2023-04-12T08:29:22;99165.97;;;10.45;60.23
66176;BME280;52977;44.816;20.538;2023-04-12T08:31:48;99204.47;;;10.64;60.70
66176;BME280;52977;44.816;20.538;2023-04-12T08:34:14;99198.09;;;10.60;58.73
66176;BME280;52977;44.816;20.538;2023-04-12T08:36:41;99163.47;;;10.31;58.27
66176;BME280;52977;44.816;20.538;2023-04-12T08:39:07;99197.69;;;10.70;58.72
66176;BME280;52977;44.816;20.538;2023-04-12T08:41:34;99180.25;;;10.63;57.87
66176;BME280;52977;44.816;20.538;2023-04-12T08:44:01;99209.53;;;10.74;58.10
66176;BME280;52977;44.816;20.538;2023-04-12T08:46:28;99194.41;;;10.77;56.22
66176;BME280;52977;44.816;20.538;2023-04-12T08:48:55;99183.50;;;10.56;55.91
66176;BME280;52977;44.816;20.538;2023-04-12T08:51:23;99206.38;;;10.85;55.89
66176;BME280;52977;44.816;20.538;2023-04-12T08:53:50;99201.75;;;10.98;55.63
66176;BME280;52977;44.816;20.538;2023-04-12T08:56:18;99170.50;;;10.74;56.40
66176;BME280;52977;44.816;20.538;2023-04-12T08:58:46;99134.00;;;10.66;55.72
66176;BME280;52977;44.816;20.538;2023-04-12T09:01:16;99192.91;;;11.13;55.78
66176;BME280;52977;44.816;20.538;2023-04-12T09:03:46;99155.44;;;10.89;55.47
66176;BME280;52977;44.816;20.538;2023-04-12T09:06:12;99206.81;;;11.20;55.73
66176;BME280;52977;44.816;20.538;2023-04-12T09:08:55;99182.22;;;11.08;55.50
66176;BME280;52977;44.816;20.538;2023-04-12T09:11:26;99191.22;;;11.08;53.55
66176;BME280;52977;44.816;20.538;2023-04-12T09:13:55;99193.72;;;11.14;54.62
66176;BME280;52977;44.816;20.538;2023-04-12T09:16:39;99185.25;;;10.94;54.80
66176;BME280;52977;44.816;20.538;2023-04-12T09:19:06;99196.66;;;11.08;55.32
66176;BME280;52977;44.816;20.538;2023-04-12T09:21:33;99103.81;;;10.63;55.46
66176;BME280;52977;44.816;20.538;2023-04-12T09:24:08;99137.03;;;10.98;52.79
66176;BME280;52977;44.816;20.538;2023-04-12T09:26:36;99190.03;;;11.43;53.04
66176;BME280;52977;44.816;20.538;2023-04-12T09:29:03;99143.91;;;11.29;52.91
66176;BME280;52977;44.816;20.538;2023-04-12T09:31:30;99193.91;;;11.67;53.23
66176;BME280;52977;44.816;20.538;2023-04-12T09:34:06;99185.22;;;11.65;52.08
66176;BME280;52977;44.816;20.538;2023-04-12T09:36:37;99177.81;;;11.77;52.08
66176;BME280;52977;44.816;20.538;2023-04-12T09:39:04;99070.13;;;11.29;51.33
66176;BME280;52977;44.816;20.538;2023-04-12T09:41:30;99142.28;;;11.65;50.18
66176;BME280;52977;44.816;20.538;2023-04-12T09:43:58;99161.66;;;11.85;50.80
66176;BME280;52977;44.816;20.538;2023-04-12T09:46:24;99161.75;;;11.88;50.39
66176;BME280;52977;44.816;20.538;2023-04-12T09:48:53;99117.22;;;11.63;51.18
66176;BME280;52977;44.816;20.538;2023-04-12T09:51:28;99168.72;;;11.73;51.20
66176;BME280;52977;44.816;20.538;2023-04-12T09:56:27;99118.25;;;11.71;48.88
66176;BME280;52977;44.816;20.538;2023-04-12T09:58:56;99156.50;;;12.08;49.68
66176;BME280;52977;44.816;20.538;2023-04-12T10:01:25;99162.44;;;12.10;49.44
66176;BME280;52977;44.816;20.538;2023-04-12T10:03:52;99161.63;;;12.09;48.31
66176;BME280;52977;44.816;20.538;2023-04-12T10:06:20;99123.81;;;11.74;48.18
66176;BME280;52977;44.816;20.538;2023-04-12T10:08:48;99162.47;;;11.98;47.62
66176;BME280;52977;44.816;20.538;2023-04-12T10:11:15;99166.53;;;11.91;48.01
66176;BME280;52977;44.816;20.538;2023-04-12T10:13:41;99087.41;;;11.45;48.11
66176;BME280;52977;44.816;20.538;2023-04-12T10:16:08;99150.34;;;11.99;47.86
66176;BME280;52977;44.816;20.538;2023-04-12T10:18:35;99139.66;;;11.93;47.73
66176;BME280;52977;44.816;20.538;2023-04-12T10:21:04;99157.97;;;12.18;47.84
66176;BME280;52977;44.816;20.538;2023-04-12T10:23:31;99154.28;;;12.26;47.16
66176;BME280;52977;44.816;20.538;2023-04-12T10:25:59;99135.59;;;12.28;46.78
66176;BME280;52977;44.816;20.538;2023-04-12T10:28:25;99117.63;;;12.43;46.24
66176;BME280;52977;44.816;20.538;2023-04-12T10:30:56;99143.41;;;12.70;45.47
66176;BME280;52977;44.816;20.538;2023-04-12T10:33:27;99129.78;;;12.58;44.93
66176;BME280;52977;44.816;20.538;2023-04-12T10:36:02;99141.25;;;12.63;45.13
66176;BME280;52977;44.816;20.538;2023-04-12T10:38:44;99144.59;;;12.57;44.98
66176;BME280;52977;44.816;20.538;2023-04-12T10:43:47;99112.09;;;12.55;44.78
66176;BME280;52977;44.816;20.538;2023-04-12T10:49:08;99123.53;;;12.89;46.08
66176;BME280;52977;44.816;20.538;2023-04-12T10:51:35;99099.53;;;12.82;45.21
66176;BME280;52977;44.816;20.538;2023-04-12T10:56:41;99077.22;;;12.52;43.37
66176;BME280;52977;44.816;20.538;2023-04-12T10:59:13;99097.69;;;12.58;44.20
66176;BME280;52977;44.816;20.538;2023-04-12T11:05:10;99112.25;;;12.91;43.55
66176;BME280;52977;44.816;20.538;2023-04-12T11:08:10;99126.50;;;12.96;43.38
66176;BME280;52977;44.816;20.538;2023-04-12T11:10:49;99112.88;;;12.84;44.09
66176;BME280;52977;44.816;20.538;2023-04-12T11:13:27;98991.59;;;12.07;44.64
66176;BME280;52977;44.816;20.538;2023-04-12T11:15:54;99113.66;;;12.85;44.32
66176;BME280;52977;44.816;20.538;2023-04-12T11:18:24;99099.25;;;12.88;43.77
66176;BME280;52977;44.816;20.538;2023-04-12T11:20:51;99084.16;;;12.94;42.95
66176;BME280;52977;44.816;20.538;2023-04-12T11:23:18;99100.66;;;13.29;43.04
66176;BME280;52977;44.816;20.538;2023-04-12T11:25:51;99082.50;;;13.37;41.06
66176;BME280;52977;44.816;20.538;2023-04-12T11:28:20;99079.13;;;13.44;40.95
66176;BME280;52977;44.816;20.538;2023-04-12T11:30:57;99078.50;;;13.70;42.20
66176;BME280;52977;44.816;20.538;2023-04-12T11:33:34;99060.63;;;13.76;40.38
66176;BME280;52977;44.816;20.538;2023-04-12T11:36:06;99039.84;;;13.24;39.87
66176;BME280;52977;44.816;20.538;2023-04-12T11:38:34;99067.63;;;13.06;39.87
66176;BME280;52977;44.816;20.538;2023-04-12T11:41:00;99026.28;;;12.95;39.80
66176;BME280;52977;44.816;20.538;2023-04-12T11:43:27;99035.19;;;13.08;39.51
66176;BME280;52977;44.816;20.538;2023-04-12T11:46:00;99085.16;;;13.69;39.78
66176;BME280;52977;44.816;20.538;2023-04-12T11:48:27;99090.38;;;13.94;39.76
66176;BME280;52977;44.816;20.538;2023-04-12T11:50:53;99081.00;;;13.95;39.18
66176;BME280;52977;44.816;20.538;2023-04-12T11:53:26;99046.63;;;13.62;39.62
66176;BME280;52977;44.816;20.538;2023-04-12T11:55:55;99074.63;;;13.91;40.44
66176;BME280;52977;44.816;20.538;2023-04-12T11:58:24;99029.44;;;13.65;39.24
66176;BME280;52977;44.816;20.538;2023-04-12T12:00:51;99063.03;;;13.97;40.16
66176;BME280;52977;44.816;20.538;2023-04-12T12:03:17;99073.06;;;14.09;40.05
66176;BME280;52977;44.816;20.538;2023-04-12T12:05:45;99070.41;;;14.13;39.56
66176;BME280;52977;44.816;20.538;2023-04-12T12:08:12;99049.66;;;14.15;38.86
66176;BME280;52977;44.816;20.538;2023-04-12T12:10:39;99014.00;;;13.96;38.05
66176;BME280;52977;44.816;20.538;2023-04-12T12:13:10;99069.16;;;14.30;38.37
66176;BME280;52977;44.816;20.538;2023-04-12T12:15:37;99001.00;;;13.54;38.84
66176;BME280;52977;44.816;20.538;2023-04-12T12:18:02;99024.88;;;13.73;39.97
66176;BME280;52977;44.816;20.538;2023-04-12T12:20:32;99061.50;;;14.19;38.38
66176;BME280;52977;44.816;20.538;2023-04-12T12:22:58;99064.09;;;14.51;39.63
66176;BME280;52977;44.816;20.538;2023-04-12T12:25:24;99056.72;;;14.79;38.05
66176;BME280;52977;44.816;20.538;2023-04-12T12:27:55;99042.78;;;14.88;37.11
66176;BME280;52977;44.816;20.538;2023-04-12T12:30:22;99039.38;;;15.21;37.94
66176;BME280;52977;44.816;20.538;2023-04-12T12:32:49;99050.22;;;15.37;36.40
66176;BME280;52977;44.816;20.538;2023-04-12T12:35:15;99028.41;;;15.25;37.20
66176;BME280;52977;44.816;20.538;2023-04-12T12:37:50;99052.94;;;14.87;36.24
66176;BME280;52977;44.816;20.538;2023-04-12T12:40:17;99049.06;;;14.88;37.65
66176;BME280;52977;44.816;20.538;2023-04-12T12:42:51;99046.66;;;14.86;38.03
66176;BME280;52977;44.816;20.538;2023-04-12T12:45:19;99055.72;;;15.14;36.28
66176;BME280;52977;44.816;20.538;2023-04-12T12:47:57;99012.28;;;14.96;35.82
66176;BME280;52977;44.816;20.538;2023-04-12T12:50:29;98948.81;;;14.78;34.86
66176;BME280;52977;44.816;20.538;2023-04-12T12:52:56;99042.84;;;15.18;35.61
66176;BME280;52977;44.816;20.538;2023-04-12T12:55:23;99042.47;;;15.19;35.59
66176;BME280;52977;44.816;20.538;2023-04-12T12:57:54;99030.38;;;14.74;36.86
66176;BME280;52977;44.816;20.538;2023-04-12T13:00:24;99029.16;;;14.72;37.12
66176;BME280;52977;44.816;20.538;2023-04-12T13:02:50;99035.00;;;14.93;37.08
66176;BME280;52977;44.816;20.538;2023-04-12T13:05:18;99033.59;;;14.80;37.32
66176;BME280;52977;44.816;20.538;2023-04-12T13:07:45;99001.94;;;14.43;37.94
66176;BME280;52977;44.816;20.538;2023-04-12T13:10:12;98998.66;;;14.57;38.60
66176;BME280;52977;44.816;20.538;2023-04-12T13:12:37;99033.53;;;14.76;37.27
66176;BME280;52977;44.816;20.538;2023-04-12T13:15:04;99028.69;;;14.46;37.54
66176;BME280;52977;44.816;20.538;2023-04-12T13:17:30;99023.25;;;14.50;37.46
66176;BME280;52977;44.816;20.538;2023-04-12T13:19:57;99034.88;;;14.63;36.68
66176;BME280;52977;44.816;20.538;2023-04-12T13:22:23;98984.91;;;14.34;36.87
66176;BME280;52977;44.816;20.538;2023-04-12T13:24:49;98987.78;;;14.41;37.34
66176;BME280;52977;44.816;20.538;2023-04-12T13:27:16;99035.56;;;14.79;37.40